createdAt,value
2022-08-23T00:02:23.436Z,14.50
2022-08-23T00:05:03.631Z,14.50
2022-08-23T00:07:38.403Z,14.50
2022-08-23T00:10:06.191Z,14.40
2022-08-23T00:12:33.185Z,14.30
2022-08-23T00:14:59.963Z,14.30
2022-08-23T00:17:34.236Z,14.20
2022-08-23T00:20:09.052Z,14.20
2022-08-23T00:22:36.523Z,14.20
2022-08-23T00:25:04.465Z,14.20
2022-08-23T00:27:31.596Z,14.10
2022-08-23T00:29:58.428Z,14.10
2022-08-23T00:32:29.999Z,14.00
2022-08-23T00:34:57.274Z,14.00
2022-08-23T00:37:24.862Z,14.00
2022-08-23T00:39:52.064Z,14.00
2022-08-23T00:42:43.797Z,14.10
2022-08-23T00:45:32.389Z,14.10
2022-08-23T00:47:59.765Z,14.10
2022-08-23T00:50:32.340Z,14.10
2022-08-23T00:53:08.207Z,14.10
2022-08-23T00:55:35.330Z,14.20
2022-08-23T00:58:02.487Z,14.20
2022-08-23T01:00:29.955Z,14.10
2022-08-23T01:02:57.830Z,14.10
2022-08-23T01:05:26.438Z,14.10
2022-08-23T01:07:55.717Z,14.00
2022-08-23T01:10:28.359Z,14.00
2022-08-23T01:12:58.818Z,13.90
2022-08-23T01:15:28.862Z,14.00
2022-08-23T01:18:02.769Z,14.00
2022-08-23T01:20:33.299Z,14.00
2022-08-23T01:23:02.126Z,14.00
2022-08-23T01:25:30.289Z,13.90
2022-08-23T01:27:57.562Z,14.00
2022-08-23T01:30:25.959Z,14.00
2022-08-23T01:32:54.753Z,14.00
2022-08-23T01:35:28.237Z,14.00
2022-08-23T01:37:55.242Z,14.00
2022-08-23T01:40:22.180Z,14.00
2022-08-23T01:42:49.542Z,13.90
2022-08-23T01:45:16.561Z,13.90
2022-08-23T01:47:43.747Z,13.90
2022-08-23T01:50:11.682Z,13.80
2022-08-23T01:52:39.086Z,13.80
2022-08-23T01:55:14.366Z,13.80
2022-08-23T01:57:42.074Z,13.70
2022-08-23T02:00:11.790Z,13.70
2022-08-23T02:02:41.046Z,13.70
2022-08-23T02:05:08.500Z,13.60
2022-08-23T02:07:35.973Z,13.60
2022-08-23T02:10:02.895Z,13.60
2022-08-23T02:12:30.031Z,13.60
2022-08-23T02:14:56.823Z,13.60
2022-08-23T02:17:24.281Z,13.50
2022-08-23T02:19:51.230Z,13.50
2022-08-23T02:22:18.038Z,13.50
2022-08-23T02:24:45.926Z,13.50
2022-08-23T02:27:17.186Z,13.50
2022-08-23T02:29:45.459Z,13.50
2022-08-23T02:32:14.242Z,13.50
2022-08-23T02:34:42.473Z,13.50
2022-08-23T02:37:10.253Z,13.40
2022-08-23T02:39:38.961Z,13.30
2022-08-23T02:42:07.052Z,13.30
2022-08-23T02:44:34.854Z,13.30
2022-08-23T02:47:02.304Z,13.20
2022-08-23T02:49:29.704Z,13.20
2022-08-23T02:51:57.272Z,13.10
2022-08-23T02:54:24.315Z,13.10
2022-08-23T02:56:51.941Z,13.10
2022-08-23T02:59:19.294Z,13.10
2022-08-23T03:01:46.205Z,13.00
2022-08-23T03:04:13.148Z,13.00
2022-08-23T03:06:40.743Z,12.90
2022-08-23T03:09:07.934Z,12.90
2022-08-23T03:11:35.185Z,12.90
2022-08-23T03:14:02.197Z,12.90
2022-08-23T03:16:29.343Z,12.90
2022-08-23T03:18:56.292Z,12.90
2022-08-23T03:21:23.131Z,12.80
2022-08-23T03:23:49.974Z,12.80
2022-08-23T03:26:16.868Z,12.70
2022-08-23T03:28:44.749Z,12.70
2022-08-23T03:31:12.416Z,12.70
2022-08-23T03:33:39.664Z,12.70
2022-08-23T03:36:07.826Z,12.70
2022-08-23T03:38:35.115Z,12.70
2022-08-23T03:41:02.322Z,12.70
2022-08-23T03:43:29.427Z,12.70
2022-08-23T03:45:56.632Z,12.70
2022-08-23T03:48:23.902Z,12.70
2022-08-23T03:50:50.814Z,12.60
2022-08-23T03:53:22.383Z,12.60
2022-08-23T03:55:49.415Z,12.50
2022-08-23T03:58:16.485Z,12.40
2022-08-23T04:00:43.999Z,12.40
2022-08-23T04:03:10.794Z,12.40
2022-08-23T04:05:37.649Z,12.30
2022-08-23T04:08:11.049Z,12.40
2022-08-23T04:10:39.375Z,12.40
2022-08-23T04:13:07.128Z,12.40
2022-08-23T04:15:33.962Z,12.40
2022-08-23T04:18:00.996Z,12.40
2022-08-23T04:20:28.886Z,12.50
2022-08-23T04:22:56.410Z,12.50
2022-08-23T04:25:34.619Z,12.50
2022-08-23T04:28:02.973Z,12.60
2022-08-23T04:30:30.148Z,12.60
2022-08-23T04:32:57.454Z,12.60
2022-08-23T04:35:25.552Z,12.60
2022-08-23T04:37:52.659Z,12.60
2022-08-23T04:40:38.266Z,12.60
2022-08-23T04:43:05.264Z,12.60
2022-08-23T04:45:32.697Z,12.50
2022-08-23T04:47:59.684Z,12.50
2022-08-23T04:50:26.645Z,12.50
2022-08-23T04:52:53.450Z,12.40
2022-08-23T04:55:20.277Z,12.40
2022-08-23T04:57:47.139Z,12.40
2022-08-23T05:00:15.494Z,12.40
2022-08-23T05:02:42.442Z,12.40
2022-08-23T05:05:11.050Z,12.50
2022-08-23T05:07:42.560Z,12.60
2022-08-23T05:10:13.467Z,12.70
2022-08-23T05:12:40.750Z,12.80
2022-08-23T05:15:08.720Z,12.80
2022-08-23T05:17:36.107Z,12.90
2022-08-23T05:20:03.891Z,13.00
2022-08-23T05:22:33.474Z,13.10
2022-08-23T05:25:00.293Z,13.10
2022-08-23T05:27:27.109Z,13.20
2022-08-23T05:29:54.551Z,13.30
2022-08-23T05:32:21.532Z,13.40
2022-08-23T05:34:49.023Z,13.40
2022-08-23T05:37:16.243Z,13.50
2022-08-23T05:39:43.248Z,13.50
2022-08-23T05:42:11.919Z,13.50
2022-08-23T05:44:38.850Z,13.60
2022-08-23T05:47:10.677Z,13.70
2022-08-23T05:49:38.837Z,13.70
2022-08-23T05:52:06.250Z,13.80
2022-08-23T05:54:33.316Z,13.80
2022-08-23T05:57:00.157Z,13.90
2022-08-23T05:59:26.967Z,13.90
2022-08-23T06:01:53.739Z,14.00
2022-08-23T06:04:20.762Z,14.00
2022-08-23T06:06:48.630Z,14.10
2022-08-23T06:09:17.010Z,14.10
2022-08-23T06:11:44.962Z,14.20
2022-08-23T06:14:11.825Z,14.30
2022-08-23T06:16:40.491Z,14.40
2022-08-23T06:19:08.030Z,14.50
2022-08-23T06:21:35.381Z,14.60
2022-08-23T06:24:02.785Z,14.70
2022-08-23T06:26:31.457Z,14.80
2022-08-23T06:28:59.745Z,14.90
2022-08-23T06:31:45.578Z,15.10
2022-08-23T06:34:29.384Z,15.20
2022-08-23T06:36:57.545Z,15.40
2022-08-23T06:39:26.247Z,15.60
2022-08-23T06:41:53.759Z,15.80
2022-08-23T06:44:20.658Z,15.90
2022-08-23T06:46:48.867Z,16.10
2022-08-23T06:49:16.214Z,16.20
2022-08-23T06:51:44.412Z,16.30
2022-08-23T06:54:14.193Z,16.40
2022-08-23T06:56:42.264Z,16.50
2022-08-23T06:59:09.310Z,16.60
2022-08-23T07:01:51.558Z,16.70
2022-08-23T07:04:20.167Z,16.80
2022-08-23T07:06:47.040Z,16.80
2022-08-23T07:09:14.190Z,16.90
2022-08-23T07:11:41.269Z,17.00
2022-08-23T07:14:10.950Z,17.10
2022-08-23T07:16:41.514Z,17.10
2022-08-23T07:19:09.256Z,17.20
2022-08-23T07:21:36.914Z,17.30
2022-08-23T07:24:03.941Z,17.40
2022-08-23T07:26:31.069Z,17.50
2022-08-23T07:28:57.869Z,17.50
2022-08-23T07:31:27.342Z,17.50
2022-08-23T07:33:55.278Z,17.60
2022-08-23T07:36:27.909Z,17.70
2022-08-23T07:38:55.761Z,17.70
2022-08-23T07:41:25.877Z,17.80
2022-08-23T07:43:52.723Z,17.80
2022-08-23T07:46:19.667Z,18.00
2022-08-23T07:48:55.108Z,18.00
2022-08-23T07:51:22.933Z,18.10
2022-08-23T07:53:49.950Z,18.20
2022-08-23T07:56:18.484Z,18.40
2022-08-23T07:58:45.295Z,18.40
2022-08-23T08:01:14.784Z,18.50
2022-08-23T08:03:45.926Z,18.60
2022-08-23T08:06:14.742Z,18.70
2022-08-23T08:08:44.098Z,18.80
2022-08-23T08:11:11.747Z,18.90
2022-08-23T08:13:39.246Z,19.00
2022-08-23T08:16:06.419Z,19.10
2022-08-23T08:18:34.797Z,19.20
2022-08-23T08:21:01.653Z,19.30
2022-08-23T08:23:31.492Z,19.40
2022-08-23T08:26:05.775Z,19.40
2022-08-23T08:28:33.284Z,19.50
2022-08-23T08:31:00.184Z,19.60
2022-08-23T08:33:30.633Z,19.60
2022-08-23T08:36:01.240Z,19.70
2022-08-23T08:38:32.848Z,19.80
2022-08-23T08:41:10.853Z,19.90
2022-08-23T08:43:59.406Z,19.90
2022-08-23T08:46:34.780Z,20.00
2022-08-23T08:49:02.177Z,20.10
2022-08-23T08:51:42.016Z,20.10
2022-08-23T08:54:10.215Z,20.10
2022-08-23T08:56:38.749Z,20.30
2022-08-23T08:59:07.263Z,20.30
2022-08-23T09:01:36.340Z,20.30
2022-08-23T09:04:03.730Z,20.30
2022-08-23T09:06:31.012Z,20.30
2022-08-23T09:09:04.962Z,20.30
2022-08-23T09:11:50.349Z,20.30
2022-08-23T09:14:37.971Z,20.40
2022-08-23T09:17:06.923Z,20.50
2022-08-23T09:19:35.147Z,20.60
2022-08-23T09:22:04.988Z,20.70
2022-08-23T09:24:32.962Z,20.80
2022-08-23T09:26:59.953Z,20.90
2022-08-23T09:29:28.444Z,21.00
2022-08-23T09:31:58.477Z,21.00
2022-08-23T09:34:35.980Z,21.00
2022-08-23T09:37:09.881Z,21.10
2022-08-23T09:39:38.162Z,21.10
2022-08-23T09:42:08.861Z,21.10
2022-08-23T09:44:38.405Z,21.10
2022-08-23T09:47:15.770Z,21.20
2022-08-23T09:49:48.491Z,21.20
2022-08-23T09:52:21.975Z,21.20
2022-08-23T09:54:57.447Z,21.20
2022-08-23T09:57:28.684Z,21.10
2022-08-23T10:00:00.445Z,21.20
2022-08-23T10:02:30.785Z,21.30
2022-08-23T10:04:59.189Z,21.20
2022-08-23T10:07:29.020Z,21.20
2022-08-23T10:10:14.095Z,21.20
2022-08-23T10:12:41.119Z,21.20
2022-08-23T10:15:09.794Z,21.20
2022-08-23T10:17:40.736Z,21.20
2022-08-23T10:20:10.855Z,21.30
2022-08-23T10:22:52.199Z,21.20
2022-08-23T10:25:23.012Z,21.30
2022-08-23T10:28:16.907Z,21.30
2022-08-23T10:30:52.748Z,21.40
2022-08-23T10:33:25.335Z,21.40
2022-08-23T10:36:10.204Z,21.40
2022-08-23T10:38:45.279Z,21.50
2022-08-23T10:41:33.616Z,21.50
2022-08-23T10:44:26.094Z,21.50
2022-08-23T10:47:14.847Z,21.50
2022-08-23T10:49:42.507Z,21.50
2022-08-23T10:52:14.919Z,21.40
2022-08-23T10:54:59.790Z,21.50
2022-08-23T10:57:35.542Z,21.50
2022-08-23T11:00:05.618Z,21.60
2022-08-23T11:02:42.920Z,21.60
2022-08-23T11:05:28.190Z,21.60
2022-08-23T11:07:59.738Z,21.60
2022-08-23T11:10:39.346Z,21.60
2022-08-23T11:13:15.878Z,21.50
2022-08-23T11:15:54.958Z,21.50
2022-08-23T11:18:33.868Z,21.50
2022-08-23T11:21:09.788Z,21.50
2022-08-23T11:23:38.778Z,21.50
2022-08-23T11:26:07.802Z,21.60
2022-08-23T11:28:43.171Z,21.60
2022-08-23T11:31:28.548Z,21.70
2022-08-23T11:34:29.773Z,21.70
2022-08-23T11:37:15.395Z,21.70
2022-08-23T11:40:09.388Z,21.70
2022-08-23T11:42:38.929Z,21.70
2022-08-23T11:45:29.122Z,21.60
2022-08-23T11:48:14.273Z,21.70
2022-08-23T11:50:59.621Z,21.70
2022-08-23T11:53:47.633Z,21.70
2022-08-23T11:56:33.730Z,21.70
2022-08-23T11:59:22.490Z,21.70
2022-08-23T12:01:50.903Z,21.70
2022-08-23T12:04:31.871Z,21.60
2022-08-23T12:07:03.694Z,21.60
2022-08-23T12:09:30.453Z,21.60
2022-08-23T12:11:57.247Z,21.60
2022-08-23T12:14:42.426Z,21.60
2022-08-23T12:17:12.259Z,21.60
2022-08-23T12:19:51.293Z,21.70
2022-08-23T12:22:21.618Z,21.70
2022-08-23T12:24:56.594Z,21.80
2022-08-23T12:27:26.579Z,21.80
2022-08-23T12:29:59.679Z,21.80
2022-08-23T12:32:30.434Z,21.80
2022-08-23T12:35:11.354Z,21.80
2022-08-23T12:38:03.106Z,21.80
2022-08-23T12:40:32.771Z,21.80
2022-08-23T12:43:05.915Z,21.80
2022-08-23T12:45:37.333Z,21.90
2022-08-23T12:48:06.496Z,21.80
2022-08-23T12:50:35.774Z,21.80
2022-08-23T12:53:25.984Z,21.80
2022-08-23T12:55:58.896Z,21.80
2022-08-23T12:58:29.833Z,21.80
2022-08-23T13:01:00.627Z,21.70
2022-08-23T13:03:30.385Z,21.70
2022-08-23T13:06:11.803Z,21.80
2022-08-23T13:08:40.580Z,21.80
2022-08-23T13:11:08.823Z,21.80
2022-08-23T13:13:37.849Z,21.70
2022-08-23T13:16:27.019Z,21.80
2022-08-23T13:18:56.229Z,21.70
2022-08-23T13:21:23.122Z,21.60
2022-08-23T13:23:57.756Z,21.60
2022-08-23T13:26:41.610Z,21.60
2022-08-23T13:29:20.618Z,21.60
2022-08-23T13:31:50.278Z,21.50
2022-08-23T13:34:35.957Z,21.40
2022-08-23T13:37:05.022Z,21.30
2022-08-23T13:39:32.730Z,21.30
2022-08-23T13:41:59.645Z,21.20
2022-08-23T13:44:26.622Z,21.20
2022-08-23T13:46:53.427Z,21.30
2022-08-23T13:49:22.062Z,21.30
2022-08-23T13:52:18.637Z,21.30
2022-08-23T13:54:52.618Z,21.30
2022-08-23T13:57:21.102Z,21.20
2022-08-23T13:59:49.963Z,21.20
2022-08-23T14:02:17.729Z,21.20
2022-08-23T14:04:44.777Z,21.20
2022-08-23T14:07:12.633Z,21.20
2022-08-23T14:09:39.799Z,21.20
2022-08-23T14:12:09.657Z,21.20
2022-08-23T14:14:37.485Z,21.10
2022-08-23T14:17:05.438Z,20.90
2022-08-23T14:22:24.355Z,20.80
2022-08-23T14:24:51.183Z,20.60
2022-08-23T14:27:18.027Z,20.70
2022-08-23T14:29:44.791Z,20.60
2022-08-23T14:32:11.635Z,20.60
2022-08-23T14:34:38.426Z,20.50
2022-08-23T14:38:01.997Z,20.50
2022-08-23T14:39:53.969Z,20.50
2022-08-23T14:42:22.126Z,20.50
2022-08-23T14:44:48.953Z,20.50
2022-08-23T14:47:15.887Z,20.50
2022-08-23T14:49:42.680Z,20.50
2022-08-23T14:52:10.386Z,20.60
2022-08-23T14:54:40.404Z,20.50
2022-08-23T14:57:07.247Z,20.50
2022-08-23T14:59:34.373Z,20.50
2022-08-23T15:02:01.439Z,20.30
2022-08-23T15:04:34.330Z,20.30
2022-08-23T15:07:18.954Z,20.20
2022-08-23T15:09:47.126Z,20.20
2022-08-23T15:15:00.903Z,20.10
2022-08-23T15:17:31.481Z,20.00
2022-08-23T15:19:58.858Z,20.10
2022-08-23T15:22:26.074Z,20.10
2022-08-23T15:24:52.990Z,20.10
2022-08-23T15:27:20.366Z,20.10
2022-08-23T15:29:47.322Z,20.00
2022-08-23T15:32:14.187Z,20.00
2022-08-23T15:34:49.078Z,20.00
2022-08-23T15:37:15.976Z,20.00
2022-08-23T15:39:43.102Z,19.90
2022-08-23T15:42:09.948Z,19.90
2022-08-23T15:44:37.263Z,19.90
2022-08-23T15:47:05.767Z,19.80
2022-08-23T15:49:36.219Z,19.80
2022-08-23T15:52:04.318Z,19.80
2022-08-23T15:54:31.287Z,19.70
2022-08-23T15:56:58.205Z,19.70
2022-08-23T15:59:25.261Z,19.60
2022-08-23T16:01:52.073Z,19.60
2022-08-23T16:04:19.254Z,19.50
2022-08-23T16:06:46.062Z,19.40
2022-08-23T16:09:17.562Z,19.40
2022-08-23T16:11:44.767Z,19.40
2022-08-23T16:14:11.890Z,19.30
2022-08-23T16:16:39.725Z,19.20
2022-08-23T16:19:07.322Z,19.20
2022-08-23T16:21:37.523Z,19.20
2022-08-23T16:24:04.852Z,19.10
2022-08-23T16:26:35.030Z,19.10
2022-08-23T16:29:03.477Z,19.10
2022-08-23T16:31:38.741Z,19.10
2022-08-23T16:34:08.018Z,19.00
2022-08-23T16:36:35.020Z,18.90
2022-08-23T16:39:01.870Z,18.90
2022-08-23T16:41:28.633Z,18.90
2022-08-23T16:43:55.477Z,18.80
2022-08-23T16:46:23.555Z,18.80
2022-08-23T16:48:50.415Z,18.80
2022-08-23T16:51:17.903Z,18.80
2022-08-23T16:53:44.838Z,18.70
2022-08-23T16:56:23.890Z,18.70
2022-08-23T16:58:50.977Z,18.70
2022-08-23T17:01:19.828Z,18.70
2022-08-23T17:03:46.777Z,18.70
2022-08-23T17:06:14.878Z,18.60
2022-08-23T17:08:41.772Z,18.60
2022-08-23T17:11:10.546Z,18.60
2022-08-23T17:13:37.389Z,18.60
2022-08-23T17:16:04.275Z,18.50
2022-08-23T17:18:31.430Z,18.50
2022-08-23T17:20:58.324Z,18.40
2022-08-23T17:23:25.235Z,18.50
2022-08-23T17:25:51.998Z,18.40
2022-08-23T17:28:18.801Z,18.50
2022-08-23T17:30:45.839Z,18.50
2022-08-23T17:33:12.695Z,18.50
2022-08-23T17:35:39.761Z,18.50
2022-08-23T17:38:07.016Z,18.60
2022-08-23T17:40:35.927Z,18.50
2022-08-23T17:43:03.564Z,18.50
2022-08-23T17:45:33.291Z,18.50
2022-08-23T17:48:00.203Z,18.50
2022-08-23T17:50:27.140Z,18.50
2022-08-23T17:52:54.034Z,18.60
2022-08-23T17:55:20.993Z,18.50
2022-08-23T17:57:48.432Z,18.60
2022-08-23T18:00:18.162Z,18.50
2022-08-23T18:02:44.990Z,18.60
2022-08-23T18:05:12.010Z,18.60
2022-08-23T18:07:40.087Z,18.60
2022-08-23T18:10:07.724Z,18.60
2022-08-23T18:12:34.622Z,18.50
2022-08-23T18:15:04.608Z,18.40
2022-08-23T18:17:32.414Z,18.40
2022-08-23T18:19:59.325Z,18.40
2022-08-23T18:22:26.725Z,18.40
2022-08-23T18:24:53.614Z,18.50
2022-08-23T18:27:39.305Z,18.50
2022-08-23T18:30:08.619Z,18.50
2022-08-23T18:32:35.708Z,18.40
2022-08-23T18:35:02.690Z,18.50
2022-08-23T18:37:29.571Z,18.50
2022-08-23T18:39:56.433Z,18.50
2022-08-23T18:42:24.226Z,18.50
2022-08-23T18:44:51.008Z,18.40
2022-08-23T18:47:18.377Z,18.40
2022-08-23T18:49:45.271Z,18.40
2022-08-23T18:52:12.879Z,18.40
2022-08-23T18:54:39.699Z,18.40
2022-08-23T18:57:06.562Z,18.40
2022-08-23T18:59:33.489Z,18.40
2022-08-23T19:02:00.420Z,18.50
2022-08-23T19:04:27.377Z,18.50
2022-08-23T19:06:54.534Z,18.40
2022-08-23T19:09:21.682Z,18.40
2022-08-23T19:11:48.451Z,18.40
2022-08-23T19:14:15.367Z,18.40
2022-08-23T19:16:47.307Z,18.40
2022-08-23T19:19:17.548Z,18.30
2022-08-23T19:21:44.554Z,18.40
2022-08-23T19:24:11.439Z,18.30
2022-08-23T19:26:38.375Z,18.40
2022-08-23T19:29:07.620Z,18.30
2022-08-23T19:31:41.007Z,18.30
2022-08-23T19:34:09.174Z,18.30
2022-08-23T19:36:46.236Z,18.30
2022-08-23T19:39:14.258Z,18.30
2022-08-23T19:41:42.038Z,18.30
2022-08-23T19:44:09.533Z,18.30
2022-08-23T19:46:41.115Z,18.30
2022-08-23T19:49:09.714Z,18.30
2022-08-23T19:51:36.965Z,18.20
2022-08-23T19:54:06.975Z,18.20
2022-08-23T19:56:47.058Z,18.10
2022-08-23T19:59:16.486Z,18.10
2022-08-23T20:01:43.368Z,18.00
2022-08-23T20:04:11.112Z,17.90
2022-08-23T20:06:37.896Z,17.90
2022-08-23T20:09:06.434Z,17.90
2022-08-23T20:11:33.415Z,17.80
2022-08-23T20:14:01.188Z,17.80
2022-08-23T20:16:29.170Z,17.70
2022-08-23T20:18:56.153Z,17.70
2022-08-23T20:21:23.596Z,17.70
2022-08-23T20:24:05.985Z,17.60
2022-08-23T20:26:34.641Z,17.60
2022-08-23T20:29:02.216Z,17.50
2022-08-23T20:31:30.543Z,17.50
2022-08-23T20:33:57.633Z,17.50
2022-08-23T20:36:28.041Z,17.40
2022-08-23T20:38:58.349Z,17.40
2022-08-23T20:41:26.431Z,17.30
2022-08-23T20:43:55.606Z,17.30
2022-08-23T20:46:22.586Z,17.20
2022-08-23T20:48:51.542Z,17.10
2022-08-23T20:51:19.046Z,17.10
2022-08-23T20:53:46.945Z,17.00
2022-08-23T20:56:14.401Z,16.90
2022-08-23T20:58:41.213Z,16.80
2022-08-23T21:01:09.289Z,16.70
2022-08-23T21:03:38.680Z,16.60
2022-08-23T21:06:07.260Z,16.50
2022-08-23T21:08:34.097Z,16.40
2022-08-23T21:11:02.137Z,16.30
2022-08-23T21:13:29.122Z,16.20
2022-08-23T21:15:56.145Z,16.00
2022-08-23T21:18:23.172Z,15.90
2022-08-23T21:20:50.533Z,15.90
2022-08-23T21:23:17.773Z,15.80
2022-08-23T21:25:44.854Z,15.80
2022-08-23T21:28:11.729Z,15.80
2022-08-23T21:30:39.766Z,15.70
2022-08-23T21:33:07.947Z,15.50
2022-08-23T21:35:35.203Z,15.50
2022-08-23T21:38:02.118Z,15.40
2022-08-23T21:40:29.412Z,15.40
2022-08-23T21:42:56.438Z,15.30
2022-08-23T21:45:23.443Z,15.30
2022-08-23T21:47:50.293Z,15.40
2022-08-23T21:50:17.690Z,15.40
2022-08-23T21:52:45.389Z,15.40
2022-08-23T21:55:21.502Z,15.40
2022-08-23T21:57:48.614Z,15.40
2022-08-23T22:00:18.557Z,15.30
2022-08-23T22:02:45.492Z,15.30
2022-08-23T22:05:12.795Z,15.30
2022-08-23T22:07:39.742Z,15.30
2022-08-23T22:10:07.325Z,15.20
2022-08-23T22:12:34.406Z,15.20
2022-08-23T22:15:01.986Z,15.10
2022-08-23T22:17:29.734Z,15.00
2022-08-23T22:19:56.586Z,14.80
2022-08-23T22:22:25.089Z,14.70
2022-08-23T22:24:52.385Z,14.60
2022-08-23T22:27:19.403Z,14.50
2022-08-23T22:29:46.463Z,14.50
2022-08-23T22:32:13.518Z,14.40
2022-08-23T22:34:40.341Z,14.30
2022-08-23T22:37:07.182Z,14.20
2022-08-23T22:39:34.103Z,14.10
2022-08-23T22:42:01.002Z,14.10
2022-08-23T22:44:28.932Z,14.10
2022-08-23T22:46:56.786Z,14.20
2022-08-23T22:49:23.712Z,14.20
2022-08-23T22:51:55.271Z,14.20
2022-08-23T22:54:22.577Z,14.20
2022-08-23T22:56:50.862Z,14.20
2022-08-23T22:59:18.944Z,14.30
2022-08-23T23:01:48.048Z,14.20
2022-08-23T23:04:15.420Z,14.20
2022-08-23T23:06:42.683Z,14.10
2022-08-23T23:09:10.111Z,13.90
2022-08-23T23:11:40.108Z,13.80
2022-08-23T23:14:08.460Z,13.80
2022-08-23T23:16:36.041Z,13.70
2022-08-23T23:19:21.403Z,13.70
2022-08-23T23:21:50.086Z,13.70
2022-08-23T23:24:21.508Z,13.70
2022-08-23T23:26:48.552Z,13.70
2022-08-23T23:29:15.864Z,13.60
2022-08-23T23:31:42.945Z,13.60
2022-08-23T23:34:10.066Z,13.50
2022-08-23T23:36:37.696Z,13.40
2022-08-23T23:39:05.557Z,13.40
2022-08-23T23:41:32.562Z,13.30
2022-08-23T23:44:02.686Z,13.20
2022-08-23T23:46:29.565Z,13.20
2022-08-23T23:48:56.377Z,13.20
2022-08-23T23:51:24.472Z,13.10
2022-08-23T23:53:52.494Z,13.10
2022-08-23T23:56:19.809Z,13.10
2022-08-23T23:58:46.670Z,13.00
